sensor_id;sensor_type;location;lat;lon;timestamp;temperature;humidity
52381;DHT22;38310;52.796;6.942;2023-03-14T00:00:52;10.70;99.90
52381;DHT22;38310;52.796;6.942;2023-03-14T00:03:18;10.70;99.90
52381;DHT22;38310;52.796;6.942;2023-03-14T00:05:44;10.70;99.90
52381;DHT22;38310;52.796;6.942;2023-03-14T00:08:09;10.60;99.90
52381;DHT22;38310;52.796;6.942;2023-03-14T00:10:36;10.80;99.90
52381;DHT22;38310;52.796;6.942;2023-03-14T00:13:02;10.80;99.90
52381;DHT22;38310;52.796;6.942;2023-03-14T00:15:28;10.80;99.90
52381;DHT22;38310;52.796;6.942;2023-03-14T00:17:53;10.90;99.90
52381;DHT22;38310;52.796;6.942;2023-03-14T00:20:19;10.80;99.90
52381;DHT22;38310;52.796;6.942;2023-03-14T00:22:45;10.70;99.90
52381;DHT22;38310;52.796;6.942;2023-03-14T00:25:11;10.70;99.90
52381;DHT22;38310;52.796;6.942;2023-03-14T00:27:37;10.70;99.90
52381;DHT22;38310;52.796;6.942;2023-03-14T00:30:04;10.60;99.90
52381;DHT22;38310;52.796;6.942;2023-03-14T00:32:30;10.60;99.90
52381;DHT22;38310;52.796;6.942;2023-03-14T00:34:56;10.50;99.90
52381;DHT22;38310;52.796;6.942;2023-03-14T00:37:22;10.40;99.90
52381;DHT22;38310;52.796;6.942;2023-03-14T00:39:48;10.40;99.90
52381;DHT22;38310;52.796;6.942;2023-03-14T00:42:14;10.30;99.90
52381;DHT22;38310;52.796;6.942;2023-03-14T00:44:39;10.20;99.90
52381;DHT22;38310;52.796;6.942;2023-03-14T00:47:05;10.00;99.90
52381;DHT22;38310;52.796;6.942;2023-03-14T00:49:31;9.90;99.90
52381;DHT22;38310;52.796;6.942;2023-03-14T00:51:56;9.90;99.90
52381;DHT22;38310;52.796;6.942;2023-03-14T00:54:22;9.80;99.90
52381;DHT22;38310;52.796;6.942;2023-03-14T00:56:48;9.90;99.90
52381;DHT22;38310;52.796;6.942;2023-03-14T00:59:15;9.90;99.90
52381;DHT22;38310;52.796;6.942;2023-03-14T01:01:41;9.90;99.90
52381;DHT22;38310;52.796;6.942;2023-03-14T01:04:07;9.90;99.90
52381;DHT22;38310;52.796;6.942;2023-03-14T01:06:33;9.90;99.90
52381;DHT22;38310;52.796;6.942;2023-03-14T01:08:59;9.90;99.90
52381;DHT22;38310;52.796;6.942;2023-03-14T01:11:28;9.90;99.90
52381;DHT22;38310;52.796;6.942;2023-03-14T01:13:55;9.90;99.90
52381;DHT22;38310;52.796;6.942;2023-03-14T01:16:22;9.90;99.90
52381;DHT22;38310;52.796;6.942;2023-03-14T01:18:48;9.70;99.90
52381;DHT22;38310;52.796;6.942;2023-03-14T01:21:26;9.60;99.90
52381;DHT22;38310;52.796;6.942;2023-03-14T01:23:53;9.40;99.90
52381;DHT22;38310;52.796;6.942;2023-03-14T01:26:20;9.40;99.90
52381;DHT22;38310;52.796;6.942;2023-03-14T01:28:48;9.30;99.90
52381;DHT22;38310;52.796;6.942;2023-03-14T01:31:14;9.20;99.90
52381;DHT22;38310;52.796;6.942;2023-03-14T01:33:41;9.20;99.90
52381;DHT22;38310;52.796;6.942;2023-03-14T01:36:08;9.20;99.90
52381;DHT22;38310;52.796;6.942;2023-03-14T01:38:35;9.20;99.90
52381;DHT22;38310;52.796;6.942;2023-03-14T01:41:02;9.30;99.90
52381;DHT22;38310;52.796;6.942;2023-03-14T01:43:28;9.30;99.90
52381;DHT22;38310;52.796;6.942;2023-03-14T01:48:42;9.30;99.90
52381;DHT22;38310;52.796;6.942;2023-03-14T01:51:12;9.30;99.90
52381;DHT22;38310;52.796;6.942;2023-03-14T01:53:41;9.40;99.90
52381;DHT22;38310;52.796;6.942;2023-03-14T01:56:10;9.40;99.90
52381;DHT22;38310;52.796;6.942;2023-03-14T01:58:38;9.40;99.90
52381;DHT22;38310;52.796;6.942;2023-03-14T02:01:05;10.20;99.90
52381;DHT22;38310;52.796;6.942;2023-03-14T02:03:37;9.40;99.90
52381;DHT22;38310;52.796;6.942;2023-03-14T02:06:06;9.40;99.90
52381;DHT22;38310;52.796;6.942;2023-03-14T02:08:33;9.40;99.90
52381;DHT22;38310;52.796;6.942;2023-03-14T02:11:00;9.40;99.90
52381;DHT22;38310;52.796;6.942;2023-03-14T02:13:26;9.40;99.90
52381;DHT22;38310;52.796;6.942;2023-03-14T02:15:52;9.50;99.90
52381;DHT22;38310;52.796;6.942;2023-03-14T02:18:18;9.40;99.90
52381;DHT22;38310;52.796;6.942;2023-03-14T02:21:20;9.40;99.90
52381;DHT22;38310;52.796;6.942;2023-03-14T02:29:37;9.40;99.90
52381;DHT22;38310;52.796;6.942;2023-03-14T02:32:04;9.40;99.90
52381;DHT22;38310;52.796;6.942;2023-03-14T02:34:31;9.30;99.90
52381;DHT22;38310;52.796;6.942;2023-03-14T02:36:58;9.30;99.90
52381;DHT22;38310;52.796;6.942;2023-03-14T02:39:33;9.40;99.90
52381;DHT22;38310;52.796;6.942;2023-03-14T02:42:00;9.40;99.90
52381;DHT22;38310;52.796;6.942;2023-03-14T02:44:26;9.50;99.90
52381;DHT22;38310;52.796;6.942;2023-03-14T02:46:52;9.50;99.90
52381;DHT22;38310;52.796;6.942;2023-03-14T02:49:18;9.40;99.90
52381;DHT22;38310;52.796;6.942;2023-03-14T02:51:44;9.50;99.90
52381;DHT22;38310;52.796;6.942;2023-03-14T02:54:10;9.50;99.90
52381;DHT22;38310;52.796;6.942;2023-03-14T02:56:36;9.50;99.90
52381;DHT22;38310;52.796;6.942;2023-03-14T02:59:06;9.60;99.90
52381;DHT22;38310;52.796;6.942;2023-03-14T03:01:33;9.50;99.90
52381;DHT22;38310;52.796;6.942;2023-03-14T03:03:59;9.60;99.90
52381;DHT22;38310;52.796;6.942;2023-03-14T03:06:25;9.70;99.90
52381;DHT22;38310;52.796;6.942;2023-03-14T03:08:51;9.60;99.90
52381;DHT22;38310;52.796;6.942;2023-03-14T03:11:16;9.70;99.90
52381;DHT22;38310;52.796;6.942;2023-03-14T03:13:42;9.60;99.90
52381;DHT22;38310;52.796;6.942;2023-03-14T03:16:08;9.60;99.90
52381;DHT22;38310;52.796;6.942;2023-03-14T03:18:34;9.50;99.90
52381;DHT22;38310;52.796;6.942;2023-03-14T03:21:04;9.50;99.90
52381;DHT22;38310;52.796;6.942;2023-03-14T03:23:31;9.40;99.90
52381;DHT22;38310;52.796;6.942;2023-03-14T03:25:57;9.40;99.90
52381;DHT22;38310;52.796;6.942;2023-03-14T03:28:22;9.40;99.90
52381;DHT22;38310;52.796;6.942;2023-03-14T03:30:48;9.40;99.90
52381;DHT22;38310;52.796;6.942;2023-03-14T03:33:14;9.30;99.90
52381;DHT22;38310;52.796;6.942;2023-03-14T03:35:48;9.40;99.90
52381;DHT22;38310;52.796;6.942;2023-03-14T03:38:15;9.30;99.90
52381;DHT22;38310;52.796;6.942;2023-03-14T03:40:41;9.30;99.90
52381;DHT22;38310;52.796;6.942;2023-03-14T03:43:06;9.30;99.90
52381;DHT22;38310;52.796;6.942;2023-03-14T03:45:32;9.30;99.90
52381;DHT22;38310;52.796;6.942;2023-03-14T03:47:58;9.30;99.90
52381;DHT22;38310;52.796;6.942;2023-03-14T03:50:23;9.20;99.90
52381;DHT22;38310;52.796;6.942;2023-03-14T03:52:49;9.20;99.90
52381;DHT22;38310;52.796;6.942;2023-03-14T03:55:15;9.20;99.90
52381;DHT22;38310;52.796;6.942;2023-03-14T03:57:40;9.10;99.90
52381;DHT22;38310;52.796;6.942;2023-03-14T04:00:07;9.10;99.90
52381;DHT22;38310;52.796;6.942;2023-03-14T04:02:36;9.10;99.90
52381;DHT22;38310;52.796;6.942;2023-03-14T04:05:02;9.10;99.90
52381;DHT22;38310;52.796;6.942;2023-03-14T04:07:27;9.10;99.90
52381;DHT22;38310;52.796;6.942;2023-03-14T04:09:53;9.10;99.90
52381;DHT22;38310;52.796;6.942;2023-03-14T04:12:19;9.10;99.90
52381;DHT22;38310;52.796;6.942;2023-03-14T04:14:45;9.10;99.90
52381;DHT22;38310;52.796;6.942;2023-03-14T04:17:11;9.10;99.90
52381;DHT22;38310;52.796;6.942;2023-03-14T04:19:36;9.10;99.90
52381;DHT22;38310;52.796;6.942;2023-03-14T04:22:02;9.10;99.90
52381;DHT22;38310;52.796;6.942;2023-03-14T04:24:28;9.10;99.90
52381;DHT22;38310;52.796;6.942;2023-03-14T04:26:54;9.10;99.90
52381;DHT22;38310;52.796;6.942;2023-03-14T04:29:19;9.10;99.90
52381;DHT22;38310;52.796;6.942;2023-03-14T04:31:45;9.10;99.90
52381;DHT22;38310;52.796;6.942;2023-03-14T04:34:11;9.00;99.90
52381;DHT22;38310;52.796;6.942;2023-03-14T04:36:36;9.00;99.90
52381;DHT22;38310;52.796;6.942;2023-03-14T04:39:02;9.00;99.90
52381;DHT22;38310;52.796;6.942;2023-03-14T04:41:29;9.00;99.90
52381;DHT22;38310;52.796;6.942;2023-03-14T04:43:55;9.00;99.90
52381;DHT22;38310;52.796;6.942;2023-03-14T04:46:21;9.00;99.90
52381;DHT22;38310;52.796;6.942;2023-03-14T04:48:46;9.00;99.90
52381;DHT22;38310;52.796;6.942;2023-03-14T04:51:12;9.00;99.90
52381;DHT22;38310;52.796;6.942;2023-03-14T04:53:38;9.00;99.90
52381;DHT22;38310;52.796;6.942;2023-03-14T04:56:04;9.00;99.90
52381;DHT22;38310;52.796;6.942;2023-03-14T04:58:30;9.00;99.90
52381;DHT22;38310;52.796;6.942;2023-03-14T05:01:04;9.10;99.90
52381;DHT22;38310;52.796;6.942;2023-03-14T05:03:30;9.10;99.90
52381;DHT22;38310;52.796;6.942;2023-03-14T05:05:56;9.00;99.90
52381;DHT22;38310;52.796;6.942;2023-03-14T05:08:22;9.10;99.90
52381;DHT22;38310;52.796;6.942;2023-03-14T05:10:56;9.00;99.90
52381;DHT22;38310;52.796;6.942;2023-03-14T05:13:22;9.10;99.90
52381;DHT22;38310;52.796;6.942;2023-03-14T05:15:48;9.10;99.90
52381;DHT22;38310;52.796;6.942;2023-03-14T05:18:14;9.00;99.90
52381;DHT22;38310;52.796;6.942;2023-03-14T05:20:39;9.00;99.90
52381;DHT22;38310;52.796;6.942;2023-03-14T05:23:05;9.00;99.90
52381;DHT22;38310;52.796;6.942;2023-03-14T05:25:31;9.00;99.90
52381;DHT22;38310;52.796;6.942;2023-03-14T05:27:57;8.90;99.90
52381;DHT22;38310;52.796;6.942;2023-03-14T05:30:22;8.90;99.90
52381;DHT22;38310;52.796;6.942;2023-03-14T05:32:48;8.90;99.90
52381;DHT22;38310;52.796;6.942;2023-03-14T05:35:14;8.90;99.90
52381;DHT22;38310;52.796;6.942;2023-03-14T05:37:40;7.90;99.90
52381;DHT22;38310;52.796;6.942;2023-03-14T05:40:06;8.80;99.90
52381;DHT22;38310;52.796;6.942;2023-03-14T05:42:34;8.90;99.90
52381;DHT22;38310;52.796;6.942;2023-03-14T05:45:00;8.90;99.90
52381;DHT22;38310;52.796;6.942;2023-03-14T05:47:25;8.90;99.90
52381;DHT22;38310;52.796;6.942;2023-03-14T05:49:51;8.90;99.90
52381;DHT22;38310;52.796;6.942;2023-03-14T05:52:17;8.90;99.90
52381;DHT22;38310;52.796;6.942;2023-03-14T05:54:42;8.90;99.90
52381;DHT22;38310;52.796;6.942;2023-03-14T05:57:08;8.90;99.90
52381;DHT22;38310;52.796;6.942;2023-03-14T05:59:34;8.90;99.90
52381;DHT22;38310;52.796;6.942;2023-03-14T06:02:00;8.90;99.90
52381;DHT22;38310;52.796;6.942;2023-03-14T06:04:25;9.00;99.90
52381;DHT22;38310;52.796;6.942;2023-03-14T06:06:51;8.90;99.90
52381;DHT22;38310;52.796;6.942;2023-03-14T06:09:17;9.00;99.90
52381;DHT22;38310;52.796;6.942;2023-03-14T06:11:45;9.00;99.90
52381;DHT22;38310;52.796;6.942;2023-03-14T06:14:11;9.00;99.90
52381;DHT22;38310;52.796;6.942;2023-03-14T06:16:37;9.00;99.90
52381;DHT22;38310;52.796;6.942;2023-03-14T06:19:03;9.00;99.90
52381;DHT22;38310;52.796;6.942;2023-03-14T06:21:29;9.00;99.90
52381;DHT22;38310;52.796;6.942;2023-03-14T06:23:55;9.10;99.90
52381;DHT22;38310;52.796;6.942;2023-03-14T06:26:21;9.00;99.90
52381;DHT22;38310;52.796;6.942;2023-03-14T06:28:48;9.00;99.90
52381;DHT22;38310;52.796;6.942;2023-03-14T06:31:14;8.90;99.90
52381;DHT22;38310;52.796;6.942;2023-03-14T06:33:40;8.90;99.90
52381;DHT22;38310;52.796;6.942;2023-03-14T06:36:06;8.90;99.90
52381;DHT22;38310;52.796;6.942;2023-03-14T06:38:32;9.00;99.90
52381;DHT22;38310;52.796;6.942;2023-03-14T06:41:06;9.00;99.90
52381;DHT22;38310;52.796;6.942;2023-03-14T06:43:32;9.00;99.90
52381;DHT22;38310;52.796;6.942;2023-03-14T06:45:58;9.00;99.90
52381;DHT22;38310;52.796;6.942;2023-03-14T06:48:23;9.00;99.90
52381;DHT22;38310;52.796;6.942;2023-03-14T06:50:49;9.00;99.90
52381;DHT22;38310;52.796;6.942;2023-03-14T06:53:15;9.00;99.90
52381;DHT22;38310;52.796;6.942;2023-03-14T06:55:41;9.00;99.90
52381;DHT22;38310;52.796;6.942;2023-03-14T06:58:06;9.00;99.90
52381;DHT22;38310;52.796;6.942;2023-03-14T07:00:34;9.00;99.90
52381;DHT22;38310;52.796;6.942;2023-03-14T07:03:00;9.00;99.90
52381;DHT22;38310;52.796;6.942;2023-03-14T07:05:25;9.00;99.90
52381;DHT22;38310;52.796;6.942;2023-03-14T07:07:51;9.10;99.90
52381;DHT22;38310;52.796;6.942;2023-03-14T07:10:17;9.10;99.90
52381;DHT22;38310;52.796;6.942;2023-03-14T07:12:43;9.10;99.90
52381;DHT22;38310;52.796;6.942;2023-03-14T07:15:09;9.10;99.90
52381;DHT22;38310;52.796;6.942;2023-03-14T07:17:35;9.10;99.90
52381;DHT22;38310;52.796;6.942;2023-03-14T07:20:01;9.10;99.90
52381;DHT22;38310;52.796;6.942;2023-03-14T07:22:26;9.10;99.90
52381;DHT22;38310;52.796;6.942;2023-03-14T07:24:52;9.10;99.90
52381;DHT22;38310;52.796;6.942;2023-03-14T07:27:18;9.10;99.90
52381;DHT22;38310;52.796;6.942;2023-03-14T07:29:43;9.10;99.90
52381;DHT22;38310;52.796;6.942;2023-03-14T07:32:09;9.10;99.90
52381;DHT22;38310;52.796;6.942;2023-03-14T07:34:35;9.10;99.90
52381;DHT22;38310;52.796;6.942;2023-03-14T07:37:01;9.10;99.90
52381;DHT22;38310;52.796;6.942;2023-03-14T07:39:26;9.00;99.90
52381;DHT22;38310;52.796;6.942;2023-03-14T07:41:52;9.00;99.90
52381;DHT22;38310;52.796;6.942;2023-03-14T07:44:18;9.00;99.90
52381;DHT22;38310;52.796;6.942;2023-03-14T07:46:44;8.90;99.90
52381;DHT22;38310;52.796;6.942;2023-03-14T07:49:09;8.80;99.90
52381;DHT22;38310;52.796;6.942;2023-03-14T07:51:35;8.70;99.90
52381;DHT22;38310;52.796;6.942;2023-03-14T07:54:01;8.70;99.90
52381;DHT22;38310;52.796;6.942;2023-03-14T07:56:26;8.60;99.90
52381;DHT22;38310;52.796;6.942;2023-03-14T07:58:52;8.50;99.90
52381;DHT22;38310;52.796;6.942;2023-03-14T08:01:18;8.30;99.90
52381;DHT22;38310;52.796;6.942;2023-03-14T08:03:44;8.00;99.90
52381;DHT22;38310;52.796;6.942;2023-03-14T08:06:09;7.80;99.90
52381;DHT22;38310;52.796;6.942;2023-03-14T08:08:35;7.50;99.90
52381;DHT22;38310;52.796;6.942;2023-03-14T08:11:05;7.30;99.90
52381;DHT22;38310;52.796;6.942;2023-03-14T08:13:34;7.00;99.90
52381;DHT22;38310;52.796;6.942;2023-03-14T08:15:59;6.70;99.90
52381;DHT22;38310;52.796;6.942;2023-03-14T08:18:25;6.50;99.90
52381;DHT22;38310;52.796;6.942;2023-03-14T08:20:51;6.30;99.90
52381;DHT22;38310;52.796;6.942;2023-03-14T08:23:17;6.20;99.90
52381;DHT22;38310;52.796;6.942;2023-03-14T08:25:42;5.90;99.90
52381;DHT22;38310;52.796;6.942;2023-03-14T08:28:08;5.90;99.90
52381;DHT22;38310;52.796;6.942;2023-03-14T08:30:34;6.10;99.90
52381;DHT22;38310;52.796;6.942;2023-03-14T08:33:00;5.60;99.90
52381;DHT22;38310;52.796;6.942;2023-03-14T08:35:26;5.50;99.90
52381;DHT22;38310;52.796;6.942;2023-03-14T08:37:52;5.30;99.90
52381;DHT22;38310;52.796;6.942;2023-03-14T08:40:18;5.30;99.90
52381;DHT22;38310;52.796;6.942;2023-03-14T08:42:45;5.20;99.90
52381;DHT22;38310;52.796;6.942;2023-03-14T08:45:12;5.00;99.90
52381;DHT22;38310;52.796;6.942;2023-03-14T08:47:38;4.90;99.90
52381;DHT22;38310;52.796;6.942;2023-03-14T08:50:06;4.90;99.90
52381;DHT22;38310;52.796;6.942;2023-03-14T08:52:32;4.90;99.90
52381;DHT22;38310;52.796;6.942;2023-03-14T08:54:58;4.80;99.90
52381;DHT22;38310;52.796;6.942;2023-03-14T08:57:24;4.80;99.90
52381;DHT22;38310;52.796;6.942;2023-03-14T08:59:56;4.80;99.90
52381;DHT22;38310;52.796;6.942;2023-03-14T09:02:23;5.40;99.90
52381;DHT22;38310;52.796;6.942;2023-03-14T09:04:52;4.80;99.90
52381;DHT22;38310;52.796;6.942;2023-03-14T09:07:19;4.90;99.90
52381;DHT22;38310;52.796;6.942;2023-03-14T09:09:45;4.90;99.90
52381;DHT22;38310;52.796;6.942;2023-03-14T09:12:11;5.00;99.90
52381;DHT22;38310;52.796;6.942;2023-03-14T09:14:37;4.80;99.90
52381;DHT22;38310;52.796;6.942;2023-03-14T09:17:04;4.90;99.90
52381;DHT22;38310;52.796;6.942;2023-03-14T09:19:30;5.90;99.90
52381;DHT22;38310;52.796;6.942;2023-03-14T09:21:56;5.00;99.90
52381;DHT22;38310;52.796;6.942;2023-03-14T09:24:22;4.90;99.90
52381;DHT22;38310;52.796;6.942;2023-03-14T09:26:47;5.00;99.90
52381;DHT22;38310;52.796;6.942;2023-03-14T09:29:13;5.00;99.90
52381;DHT22;38310;52.796;6.942;2023-03-14T09:31:39;5.00;99.90
52381;DHT22;38310;52.796;6.942;2023-03-14T09:34:04;5.00;99.90
52381;DHT22;38310;52.796;6.942;2023-03-14T09:36:30;5.20;99.90
52381;DHT22;38310;52.796;6.942;2023-03-14T09:38:56;5.20;99.90
52381;DHT22;38310;52.796;6.942;2023-03-14T09:41:31;5.20;99.90
52381;DHT22;38310;52.796;6.942;2023-03-14T09:46:32;5.30;99.90
52381;DHT22;38310;52.796;6.942;2023-03-14T09:49:00;5.50;99.90
52381;DHT22;38310;52.796;6.942;2023-03-14T09:51:27;5.60;99.90
52381;DHT22;38310;52.796;6.942;2023-03-14T09:53:53;5.70;99.90
52381;DHT22;38310;52.796;6.942;2023-03-14T09:56:21;5.80;99.90
52381;DHT22;38310;52.796;6.942;2023-03-14T09:58:53;5.90;99.90
52381;DHT22;38310;52.796;6.942;2023-03-14T10:01:32;5.90;99.90
52381;DHT22;38310;52.796;6.942;2023-03-14T10:04:06;6.00;99.90
52381;DHT22;38310;52.796;6.942;2023-03-14T10:06:35;6.00;99.90
52381;DHT22;38310;52.796;6.942;2023-03-14T10:09:02;6.00;99.90
52381;DHT22;38310;52.796;6.942;2023-03-14T10:11:28;6.00;99.90
52381;DHT22;38310;52.796;6.942;2023-03-14T10:14:09;6.10;99.90
52381;DHT22;38310;52.796;6.942;2023-03-14T10:16:40;6.20;99.90
52381;DHT22;38310;52.796;6.942;2023-03-14T10:19:13;6.30;99.90
52381;DHT22;38310;52.796;6.942;2023-03-14T10:21:44;6.50;99.90
52381;DHT22;38310;52.796;6.942;2023-03-14T10:26:48;6.50;99.90
52381;DHT22;38310;52.796;6.942;2023-03-14T10:29:15;6.50;99.90
52381;DHT22;38310;52.796;6.942;2023-03-14T10:31:54;6.50;99.90
52381;DHT22;38310;52.796;6.942;2023-03-14T10:34:38;6.50;99.90
52381;DHT22;38310;52.796;6.942;2023-03-14T10:37:24;6.50;99.90
52381;DHT22;38310;52.796;6.942;2023-03-14T10:39:58;6.40;99.90
52381;DHT22;38310;52.796;6.942;2023-03-14T10:42:32;6.40;99.90
52381;DHT22;38310;52.796;6.942;2023-03-14T10:45:33;6.50;99.90
52381;DHT22;38310;52.796;6.942;2023-03-14T10:53:26;6.60;99.90
52381;DHT22;38310;52.796;6.942;2023-03-14T10:55:52;6.70;99.90
52381;DHT22;38310;52.796;6.942;2023-03-14T10:58:26;6.70;99.90
52381;DHT22;38310;52.796;6.942;2023-03-14T11:01:00;6.70;99.90
52381;DHT22;38310;52.796;6.942;2023-03-14T11:03:30;6.70;99.90
52381;DHT22;38310;52.796;6.942;2023-03-14T11:09:31;6.60;99.90
52381;DHT22;38310;52.796;6.942;2023-03-14T11:14:45;6.50;99.90
52381;DHT22;38310;52.796;6.942;2023-03-14T11:20:32;6.60;99.90
52381;DHT22;38310;52.796;6.942;2023-03-14T11:23:03;6.60;99.90
52381;DHT22;38310;52.796;6.942;2023-03-14T11:28:39;6.70;99.90
52381;DHT22;38310;52.796;6.942;2023-03-14T11:31:29;6.70;99.90
52381;DHT22;38310;52.796;6.942;2023-03-14T11:34:17;6.80;99.90
52381;DHT22;38310;52.796;6.942;2023-03-14T11:36:51;6.80;99.90
52381;DHT22;38310;52.796;6.942;2023-03-14T11:39:19;6.90;99.90
52381;DHT22;38310;52.796;6.942;2023-03-14T11:41:55;7.10;99.90
52381;DHT22;38310;52.796;6.942;2023-03-14T11:44:26;6.90;99.90
52381;DHT22;38310;52.796;6.942;2023-03-14T11:47:00;7.00;99.90
52381;DHT22;38310;52.796;6.942;2023-03-14T11:49:32;7.10;99.90
52381;DHT22;38310;52.796;6.942;2023-03-14T11:52:05;7.10;99.90
52381;DHT22;38310;52.796;6.942;2023-03-14T11:54:43;7.10;99.90
52381;DHT22;38310;52.796;6.942;2023-03-14T11:57:15;6.80;99.90
52381;DHT22;38310;52.796;6.942;2023-03-14T12:02:39;7.00;99.90
52381;DHT22;38310;52.796;6.942;2023-03-14T12:11:50;8.00;99.90
52381;DHT22;38310;52.796;6.942;2023-03-14T12:13:51;8.20;99.90
52381;DHT22;38310;52.796;6.942;2023-03-14T12:16:31;8.30;99.90
52381;DHT22;38310;52.796;6.942;2023-03-14T12:22:00;7.90;99.90
52381;DHT22;38310;52.796;6.942;2023-03-14T12:24:33;7.80;99.90
52381;DHT22;38310;52.796;6.942;2023-03-14T12:27:01;7.90;99.90
52381;DHT22;38310;52.796;6.942;2023-03-14T12:29:27;8.10;99.90
52381;DHT22;38310;52.796;6.942;2023-03-14T12:32:08;8.20;99.90
52381;DHT22;38310;52.796;6.942;2023-03-14T12:34:42;8.60;99.90
52381;DHT22;38310;52.796;6.942;2023-03-14T12:37:10;9.00;99.90
52381;DHT22;38310;52.796;6.942;2023-03-14T12:45:23;9.00;99.90
52381;DHT22;38310;52.796;6.942;2023-03-14T12:50:28;9.00;99.90
52381;DHT22;38310;52.796;6.942;2023-03-14T12:58:37;10.00;99.90
52381;DHT22;38310;52.796;6.942;2023-03-14T13:01:05;9.90;99.90
52381;DHT22;38310;52.796;6.942;2023-03-14T13:03:57;10.30;99.90
52381;DHT22;38310;52.796;6.942;2023-03-14T13:11:56;10.40;99.90
52381;DHT22;38310;52.796;6.942;2023-03-14T13:14:28;10.30;99.90
52381;DHT22;38310;52.796;6.942;2023-03-14T13:16:55;10.50;99.90
52381;DHT22;38310;52.796;6.942;2023-03-14T13:19:24;10.90;99.90
52381;DHT22;38310;52.796;6.942;2023-03-14T13:21:59;10.90;99.90
52381;DHT22;38310;52.796;6.942;2023-03-14T13:24:28;10.80;99.90
52381;DHT22;38310;52.796;6.942;2023-03-14T13:26:55;10.40;99.90
52381;DHT22;38310;52.796;6.942;2023-03-14T13:29:30;10.40;99.90
52381;DHT22;38310;52.796;6.942;2023-03-14T13:32:13;10.50;99.90
52381;DHT22;38310;52.796;6.942;2023-03-14T13:34:41;10.20;99.90
52381;DHT22;38310;52.796;6.942;2023-03-14T13:37:19;9.70;99.90
52381;DHT22;38310;52.796;6.942;2023-03-14T13:39:56;9.40;99.90
52381;DHT22;38310;52.796;6.942;2023-03-14T13:42:27;9.20;99.90
52381;DHT22;38310;52.796;6.942;2023-03-14T13:44:55;9.20;99.90
52381;DHT22;38310;52.796;6.942;2023-03-14T13:47:24;9.10;99.90
52381;DHT22;38310;52.796;6.942;2023-03-14T13:49:50;9.30;99.90
52381;DHT22;38310;52.796;6.942;2023-03-14T13:52:31;8.80;99.30
52381;DHT22;38310;52.796;6.942;2023-03-14T13:55:00;8.90;99.90
52381;DHT22;38310;52.796;6.942;2023-03-14T13:57:26;8.80;99.90
52381;DHT22;38310;52.796;6.942;2023-03-14T14:00:04;9.10;98.30
52381;DHT22;38310;52.796;6.942;2023-03-14T14:02:33;9.10;99.20
52381;DHT22;38310;52.796;6.942;2023-03-14T14:04:59;9.00;99.90
52381;DHT22;38310;52.796;6.942;2023-03-14T14:07:26;8.70;99.90
52381;DHT22;38310;52.796;6.942;2023-03-14T14:09:52;8.50;97.50
52381;DHT22;38310;52.796;6.942;2023-03-14T14:12:35;8.70;99.90
52381;DHT22;38310;52.796;6.942;2023-03-14T14:15:06;8.40;98.90
52381;DHT22;38310;52.796;6.942;2023-03-14T14:17:41;8.40;99.90
52381;DHT22;38310;52.796;6.942;2023-03-14T14:20:24;8.40;99.90
52381;DHT22;38310;52.796;6.942;2023-03-14T14:22:57;8.50;99.60
52381;DHT22;38310;52.796;6.942;2023-03-14T14:25:24;8.50;98.40
52381;DHT22;38310;52.796;6.942;2023-03-14T14:27:50;8.80;99.90
52381;DHT22;38310;52.796;6.942;2023-03-14T14:32:49;8.90;99.90
52381;DHT22;38310;52.796;6.942;2023-03-14T14:35:24;9.10;99.90
52381;DHT22;38310;52.796;6.942;2023-03-14T14:37:51;8.90;98.40
52381;DHT22;38310;52.796;6.942;2023-03-14T14:40:28;9.10;99.90
52381;DHT22;38310;52.796;6.942;2023-03-14T14:42:55;8.90;99.70
52381;DHT22;38310;52.796;6.942;2023-03-14T14:45:28;8.80;98.10
52381;DHT22;38310;52.796;6.942;2023-03-14T14:47:57;8.90;99.90
52381;DHT22;38310;52.796;6.942;2023-03-14T14:50:33;8.70;99.90
52381;DHT22;38310;52.796;6.942;2023-03-14T14:53:02;8.70;99.90
52381;DHT22;38310;52.796;6.942;2023-03-14T14:55:33;8.50;99.90
52381;DHT22;38310;52.796;6.942;2023-03-14T14:58:16;8.50;99.90
52381;DHT22;38310;52.796;6.942;2023-03-14T15:00:51;8.30;99.90
52381;DHT22;38310;52.796;6.942;2023-03-14T15:03:19;8.10;99.90
52381;DHT22;38310;52.796;6.942;2023-03-14T15:05:44;7.90;99.90
52381;DHT22;38310;52.796;6.942;2023-03-14T15:08:11;7.90;99.90
52381;DHT22;38310;52.796;6.942;2023-03-14T15:10:37;7.70;99.90
52381;DHT22;38310;52.796;6.942;2023-03-14T15:13:03;7.50;99.90
52381;DHT22;38310;52.796;6.942;2023-03-14T15:15:28;7.60;99.90
52381;DHT22;38310;52.796;6.942;2023-03-14T15:17:54;6.90;99.90
52381;DHT22;38310;52.796;6.942;2023-03-14T15:20:20;7.40;99.90
52381;DHT22;38310;52.796;6.942;2023-03-14T15:22:49;7.40;99.90
52381;DHT22;38310;52.796;6.942;2023-03-14T15:25:15;7.40;99.90
52381;DHT22;38310;52.796;6.942;2023-03-14T15:27:41;7.40;99.90
52381;DHT22;38310;52.796;6.942;2023-03-14T15:30:17;7.40;99.90
52381;DHT22;38310;52.796;6.942;2023-03-14T15:32:44;7.40;99.90
52381;DHT22;38310;52.796;6.942;2023-03-14T15:35:10;7.50;99.90
52381;DHT22;38310;52.796;6.942;2023-03-14T15:37:36;7.50;99.90
52381;DHT22;38310;52.796;6.942;2023-03-14T15:40:03;7.60;99.90
52381;DHT22;38310;52.796;6.942;2023-03-14T15:42:37;7.60;99.90
52381;DHT22;38310;52.796;6.942;2023-03-14T15:45:03;7.40;99.90
52381;DHT22;38310;52.796;6.942;2023-03-14T15:47:28;7.40;99.90
52381;DHT22;38310;52.796;6.942;2023-03-14T15:49:57;7.40;99.90
52381;DHT22;38310;52.796;6.942;2023-03-14T15:52:23;7.10;99.90
52381;DHT22;38310;52.796;6.942;2023-03-14T15:54:49;7.10;99.90
52381;DHT22;38310;52.796;6.942;2023-03-14T15:57:14;7.00;99.90
52381;DHT22;38310;52.796;6.942;2023-03-14T15:59:40;6.90;99.90
52381;DHT22;38310;52.796;6.942;2023-03-14T16:02:06;7.00;99.90
52381;DHT22;38310;52.796;6.942;2023-03-14T16:04:31;7.00;99.90
52381;DHT22;38310;52.796;6.942;2023-03-14T16:06:57;6.70;99.90
52381;DHT22;38310;52.796;6.942;2023-03-14T16:09:23;6.70;99.90
52381;DHT22;38310;52.796;6.942;2023-03-14T16:11:50;6.70;99.90
52381;DHT22;38310;52.796;6.942;2023-03-14T16:14:15;6.70;99.90
52381;DHT22;38310;52.796;6.942;2023-03-14T16:16:41;6.60;99.90
52381;DHT22;38310;52.796;6.942;2023-03-14T16:19:07;6.50;99.90
52381;DHT22;38310;52.796;6.942;2023-03-14T16:21:33;6.50;99.90
52381;DHT22;38310;52.796;6.942;2023-03-14T16:23:58;6.50;99.90
52381;DHT22;38310;52.796;6.942;2023-03-14T16:26:25;6.50;99.90
52381;DHT22;38310;52.796;6.942;2023-03-14T16:28:51;6.40;99.90
52381;DHT22;38310;52.796;6.942;2023-03-14T16:31:18;6.30;99.90
52381;DHT22;38310;52.796;6.942;2023-03-14T16:33:45;6.30;99.90
52381;DHT22;38310;52.796;6.942;2023-03-14T16:36:12;6.20;99.90
52381;DHT22;38310;52.796;6.942;2023-03-14T16:38:40;6.20;99.90
52381;DHT22;38310;52.796;6.942;2023-03-14T16:41:18;6.20;99.90
52381;DHT22;38310;52.796;6.942;2023-03-14T16:43:44;6.10;99.90
52381;DHT22;38310;52.796;6.942;2023-03-14T16:46:15;6.10;99.90
52381;DHT22;38310;52.796;6.942;2023-03-14T16:48:43;6.00;99.90
52381;DHT22;38310;52.796;6.942;2023-03-14T16:51:09;6.00;99.90
52381;DHT22;38310;52.796;6.942;2023-03-14T16:53:35;5.90;99.90
52381;DHT22;38310;52.796;6.942;2023-03-14T16:56:01;5.80;99.90